createdAt,value
2024-03-11T00:00:16.637Z,61.22
2024-03-11T00:02:43.932Z,61.96
2024-03-11T00:05:12.959Z,61.39
2024-03-11T00:07:44.057Z,61.00
2024-03-11T00:10:13.964Z,61.29
2024-03-11T00:12:42.001Z,62.24
2024-03-11T00:15:09.241Z,61.39
2024-03-11T00:17:35.753Z,61.47
2024-03-11T00:20:02.619Z,61.23
2024-03-11T00:22:29.136Z,60.87
2024-03-11T00:24:55.632Z,61.23
2024-03-11T00:27:23.061Z,61.48
2024-03-11T00:29:51.679Z,61.80
2024-03-11T00:32:18.228Z,61.72
2024-03-11T00:34:44.752Z,61.45
2024-03-11T00:37:13.622Z,62.42
2024-03-11T00:39:40.174Z,62.27
2024-03-11T00:42:07.538Z,62.99
2024-03-11T00:44:34.048Z,62.43
2024-03-11T00:47:00.606Z,62.23
2024-03-11T00:49:27.727Z,61.74
2024-03-11T00:51:54.224Z,61.74
2024-03-11T00:54:21.631Z,60.97
2024-03-11T00:56:48.153Z,61.31
2024-03-11T00:59:15.599Z,61.99
2024-03-11T01:01:42.077Z,61.83
2024-03-11T01:04:11.347Z,61.07
2024-03-11T01:06:37.850Z,60.37
2024-03-11T01:09:05.257Z,60.33
2024-03-11T01:11:31.711Z,60.24
2024-03-11T01:13:58.395Z,60.39
2024-03-11T01:16:25.107Z,59.99
2024-03-11T01:18:51.548Z,59.53
2024-03-11T01:21:18.859Z,59.58
2024-03-11T01:23:48.322Z,59.55
2024-03-11T01:26:15.312Z,59.27
2024-03-11T01:28:42.269Z,59.40
2024-03-11T01:31:08.880Z,60.87
2024-03-11T01:33:35.554Z,61.23
2024-03-11T01:36:02.554Z,61.44
2024-03-11T01:38:29.195Z,61.32
2024-03-11T01:40:56.599Z,61.51
2024-03-11T01:43:23.448Z,61.30
2024-03-11T01:45:50.585Z,61.46
2024-03-11T01:48:17.859Z,61.50
2024-03-11T01:50:44.660Z,62.29
2024-03-11T01:53:11.466Z,62.17
2024-03-11T01:55:38.952Z,63.12
2024-03-11T01:58:07.860Z,62.58
2024-03-11T02:00:35.821Z,63.01
2024-03-11T02:03:02.263Z,63.92
2024-03-11T02:05:29.557Z,64.12
2024-03-11T02:08:02.585Z,63.79
2024-03-11T02:10:29.886Z,62.91
2024-03-11T02:12:59.268Z,63.26
2024-03-11T02:15:26.503Z,61.94
2024-03-11T02:17:55.091Z,62.29
2024-03-11T02:20:23.147Z,62.19
2024-03-11T02:22:54.392Z,62.83
2024-03-11T02:25:23.351Z,62.49
2024-03-11T02:27:50.743Z,64.23
2024-03-11T02:30:17.582Z,63.43
2024-03-11T02:32:45.893Z,62.04
2024-03-11T02:35:15.689Z,61.98
2024-03-11T02:37:46.729Z,62.09
2024-03-11T02:40:15.385Z,62.10
2024-03-11T02:42:42.104Z,63.29
2024-03-11T02:45:15.431Z,62.85
2024-03-11T02:47:42.793Z,62.87
2024-03-11T02:50:09.990Z,63.29
2024-03-11T02:52:40.271Z,62.42
2024-03-11T02:55:07.895Z,61.63
2024-03-11T02:57:34.577Z,61.90
2024-03-11T03:00:01.413Z,61.71
2024-03-11T03:02:28.414Z,61.62
2024-03-11T03:04:57.044Z,61.60
2024-03-11T03:07:26.690Z,60.86
2024-03-11T03:09:54.012Z,60.46
2024-03-11T03:12:21.140Z,61.20
2024-03-11T03:14:47.763Z,61.31
2024-03-11T03:17:14.299Z,61.30
2024-03-11T03:19:40.745Z,61.60
2024-03-11T03:22:09.049Z,62.35
2024-03-11T03:24:35.659Z,62.07
2024-03-11T03:27:02.130Z,62.38
2024-03-11T03:29:28.687Z,62.49
2024-03-11T03:31:55.121Z,63.26
2024-03-11T03:34:21.638Z,63.72
2024-03-11T03:36:48.155Z,63.46
2024-03-11T03:39:14.727Z,62.77
2024-03-11T03:41:41.226Z,62.90
2024-03-11T03:44:07.874Z,63.32
2024-03-11T03:46:35.010Z,63.65
2024-03-11T03:49:01.898Z,63.01
2024-03-11T03:51:28.375Z,62.41
2024-03-11T03:53:54.922Z,62.91
2024-03-11T03:56:21.486Z,62.67
2024-03-11T03:58:48.028Z,61.99
2024-03-11T04:01:14.520Z,61.84
2024-03-11T04:03:43.253Z,61.52
2024-03-11T04:06:10.571Z,61.89
2024-03-11T04:08:37.024Z,61.78
2024-03-11T04:11:03.658Z,62.51
2024-03-11T04:13:30.145Z,61.62
2024-03-11T04:15:57.895Z,61.51
2024-03-11T04:18:27.762Z,61.94
2024-03-11T04:20:57.270Z,62.17
2024-03-11T04:23:27.305Z,63.54
2024-03-11T04:25:53.824Z,63.75
2024-03-11T04:28:20.290Z,64.83
2024-03-11T04:30:46.847Z,63.65
2024-03-11T04:33:16.858Z,64.59
2024-03-11T04:35:43.795Z,64.66
2024-03-11T04:38:11.563Z,63.93
2024-03-11T04:40:40.124Z,64.01
2024-03-11T04:43:07.006Z,64.10
2024-03-11T04:45:35.887Z,63.65
2024-03-11T04:48:03.108Z,63.69
2024-03-11T04:50:32.372Z,62.92
2024-03-11T04:53:01.647Z,62.89
2024-03-11T04:55:28.942Z,63.00
2024-03-11T04:57:56.687Z,62.80
2024-03-11T05:00:27.702Z,62.30
2024-03-11T05:03:02.316Z,61.92
2024-03-11T05:05:33.077Z,61.75
2024-03-11T05:07:59.863Z,62.09
2024-03-11T05:10:27.337Z,62.04
2024-03-11T05:12:54.025Z,62.65
2024-03-11T05:15:20.721Z,62.31
2024-03-11T05:17:47.422Z,62.38
2024-03-11T05:20:17.043Z,61.71
2024-03-11T05:22:47.618Z,61.09
2024-03-11T05:25:16.221Z,61.02
2024-03-11T05:27:44.140Z,61.18
2024-03-11T05:30:11.089Z,61.29
2024-03-11T05:32:37.793Z,61.62
2024-03-11T05:35:04.666Z,62.04
2024-03-11T05:37:33.823Z,61.04
2024-03-11T05:40:00.712Z,61.14
2024-03-11T05:42:27.448Z,61.61
2024-03-11T05:44:57.069Z,61.70
2024-03-11T05:47:27.097Z,61.98
2024-03-11T05:49:55.306Z,61.75
2024-03-11T05:52:25.969Z,60.86
2024-03-11T05:54:58.150Z,60.67
2024-03-11T05:57:27.887Z,60.87
2024-03-11T05:59:54.563Z,61.60
2024-03-11T06:02:21.916Z,61.28
2024-03-11T06:04:48.891Z,61.54
2024-03-11T06:07:25.278Z,61.01
2024-03-11T06:09:52.600Z,61.54
2024-03-11T06:12:22.215Z,61.40
2024-03-11T06:14:49.974Z,61.51
2024-03-11T06:17:17.460Z,62.50
2024-03-11T06:19:44.662Z,62.23
2024-03-11T06:22:11.566Z,61.77
2024-03-11T06:24:39.487Z,61.62
2024-03-11T06:27:06.019Z,61.71
2024-03-11T06:29:33.470Z,60.89
2024-03-11T06:31:59.991Z,62.24
2024-03-11T06:34:28.680Z,61.30
2024-03-11T06:36:56.349Z,60.58
2024-03-11T06:39:22.994Z,60.06
2024-03-11T06:41:49.556Z,58.90
2024-03-11T06:44:20.610Z,58.28
2024-03-11T06:46:49.009Z,58.51
2024-03-11T06:49:15.779Z,56.89
2024-03-11T06:51:42.294Z,56.03
2024-03-11T06:54:08.740Z,55.03
2024-03-11T06:56:35.303Z,53.64
2024-03-11T06:59:01.910Z,52.50
2024-03-11T07:01:29.157Z,52.09
2024-03-11T07:03:56.552Z,51.71
2024-03-11T07:06:24.208Z,53.58
2024-03-11T07:08:51.325Z,53.41
2024-03-11T07:11:18.296Z,53.49
2024-03-11T07:13:44.833Z,53.83
2024-03-11T07:16:13.248Z,54.18
2024-03-11T07:18:43.270Z,53.31
2024-03-11T07:21:13.438Z,53.34
2024-03-11T07:23:39.835Z,51.25
2024-03-11T07:26:06.357Z,52.43
2024-03-11T07:28:33.397Z,51.70
2024-03-11T07:31:00.606Z,52.30
2024-03-11T07:33:28.075Z,53.21
2024-03-11T07:35:55.740Z,53.65
2024-03-11T07:38:24.503Z,55.13
2024-03-11T07:40:51.426Z,54.97
2024-03-11T07:43:18.373Z,54.99
2024-03-11T07:45:45.074Z,55.25
2024-03-11T07:48:13.592Z,55.55
2024-03-11T07:50:40.613Z,55.29
2024-03-11T07:53:07.161Z,57.17
2024-03-11T07:55:36.917Z,56.98
2024-03-11T07:58:03.560Z,57.69
2024-03-11T08:00:33.074Z,58.74
2024-03-11T08:03:00.534Z,58.77
2024-03-11T08:05:28.671Z,58.88
2024-03-11T08:07:58.102Z,58.28
2024-03-11T08:10:27.002Z,57.78
2024-03-11T08:12:53.725Z,57.70
2024-03-11T08:15:21.917Z,57.09
2024-03-11T08:17:51.064Z,57.63
2024-03-11T08:20:21.542Z,57.94
2024-03-11T08:22:50.443Z,57.06
2024-03-11T08:25:19.235Z,56.83
2024-03-11T08:27:45.700Z,57.32
2024-03-11T08:30:12.717Z,56.84
2024-03-11T08:32:40.070Z,57.33
2024-03-11T08:35:06.743Z,58.06
2024-03-11T08:37:33.152Z,58.32
2024-03-11T08:39:59.713Z,57.99
2024-03-11T08:42:27.345Z,57.34
2024-03-11T08:44:53.949Z,57.24
2024-03-11T08:47:20.934Z,57.43
2024-03-11T08:49:47.606Z,57.08
2024-03-11T08:52:14.887Z,57.18
2024-03-11T08:54:41.902Z,56.36
2024-03-11T08:57:13.789Z,56.77
2024-03-11T08:59:41.002Z,56.04
2024-03-11T09:02:10.621Z,56.10
2024-03-11T09:04:37.437Z,55.05
2024-03-11T09:07:05.441Z,54.71
2024-03-11T09:09:33.359Z,54.91
2024-03-11T09:12:01.790Z,56.70
2024-03-11T09:14:32.611Z,56.65
2024-03-11T09:17:01.440Z,55.92
2024-03-11T09:19:34.462Z,56.40
2024-03-11T09:22:01.024Z,55.70
2024-03-11T09:24:27.883Z,55.65
2024-03-11T09:26:55.149Z,55.14
2024-03-11T09:29:23.202Z,54.65
2024-03-11T09:31:50.328Z,55.19
2024-03-11T09:34:18.319Z,54.05
2024-03-11T09:36:45.594Z,54.32
2024-03-11T09:39:14.939Z,54.62
2024-03-11T09:41:46.869Z,55.10
2024-03-11T09:44:21.998Z,55.56
2024-03-11T09:46:52.360Z,55.09
2024-03-11T09:49:24.241Z,54.97
2024-03-11T09:51:55.466Z,55.65
2024-03-11T09:54:23.448Z,55.66
2024-03-11T09:56:52.436Z,55.70
2024-03-11T09:59:21.232Z,55.19
2024-03-11T10:01:55.278Z,54.20
2024-03-11T10:04:27.581Z,55.08
2024-03-11T10:06:58.581Z,53.48
2024-03-11T10:09:47.370Z,52.82
2024-03-11T10:12:16.520Z,52.73
2024-03-11T10:14:44.222Z,53.05
2024-03-11T10:17:21.092Z,53.48
2024-03-11T10:19:55.776Z,53.09
2024-03-11T10:22:24.859Z,52.11
2024-03-11T10:24:58.394Z,51.64
2024-03-11T10:27:32.799Z,51.96
2024-03-11T10:30:22.314Z,52.53
2024-03-11T10:32:56.536Z,53.63
2024-03-11T10:35:28.053Z,52.80
2024-03-11T10:38:13.906Z,51.54
2024-03-11T10:40:42.504Z,51.00
2024-03-11T10:43:23.000Z,50.68
2024-03-11T10:45:49.628Z,50.30
2024-03-11T10:48:19.348Z,50.11
2024-03-11T10:50:46.043Z,50.86
2024-03-11T10:53:31.463Z,50.10
2024-03-11T10:55:59.879Z,48.88
2024-03-11T10:58:29.915Z,48.54
2024-03-11T11:01:02.027Z,51.97
2024-03-11T11:03:32.038Z,49.87
2024-03-11T11:06:10.820Z,46.11
2024-03-11T11:08:38.592Z,48.72
2024-03-11T11:11:06.481Z,49.77
2024-03-11T11:13:35.942Z,49.16
2024-03-11T11:16:04.647Z,49.86
2024-03-11T11:18:37.645Z,46.32
2024-03-11T11:21:11.318Z,46.57
2024-03-11T11:23:39.068Z,46.45
2024-03-11T11:26:06.042Z,48.19
2024-03-11T11:28:40.886Z,47.03
2024-03-11T11:31:16.251Z,46.40
2024-03-11T11:33:55.061Z,47.11
2024-03-11T11:36:30.939Z,43.41
2024-03-11T11:38:59.398Z,46.60
2024-03-11T11:41:38.576Z,43.68
2024-03-11T11:44:05.258Z,45.63
2024-03-11T11:46:51.776Z,44.74
2024-03-11T11:49:24.993Z,41.47
2024-03-11T11:51:55.713Z,43.29
2024-03-11T11:54:35.717Z,42.31
2024-03-11T11:57:13.275Z,42.97
2024-03-11T11:59:41.823Z,43.32
2024-03-11T12:02:20.676Z,42.49
2024-03-11T12:04:51.958Z,42.57
2024-03-11T12:07:24.674Z,42.91
2024-03-11T12:09:53.186Z,44.96
2024-03-11T12:12:31.747Z,43.68
2024-03-11T12:15:02.542Z,40.26
2024-03-11T12:17:33.553Z,40.06
2024-03-11T12:20:25.548Z,37.81
2024-03-11T12:23:02.186Z,38.20
2024-03-11T12:25:30.188Z,38.05
2024-03-11T12:28:09.077Z,37.49
2024-03-11T12:30:39.253Z,37.42
2024-03-11T12:33:08.274Z,37.33
2024-03-11T12:35:38.441Z,37.68
2024-03-11T12:38:06.475Z,37.34
2024-03-11T12:40:36.096Z,36.90
2024-03-11T12:43:23.394Z,35.46
2024-03-11T12:45:55.562Z,33.87
2024-03-11T12:48:26.478Z,33.81
2024-03-11T12:50:58.134Z,32.73
2024-03-11T12:53:26.830Z,33.16
2024-03-11T12:56:12.271Z,32.42
2024-03-11T12:58:40.378Z,30.84
2024-03-11T13:01:14.629Z,30.77
2024-03-11T13:03:42.975Z,31.76
2024-03-11T13:06:16.697Z,29.99
2024-03-11T13:08:43.214Z,30.59
2024-03-11T13:11:10.612Z,30.20
2024-03-11T13:13:42.408Z,31.97
2024-03-11T13:16:11.053Z,33.14
2024-03-11T13:18:40.997Z,31.90
2024-03-11T13:21:08.634Z,33.22
2024-03-11T13:23:39.472Z,30.72
2024-03-11T13:26:12.935Z,30.30
2024-03-11T13:28:40.221Z,30.48
2024-03-11T13:31:12.484Z,32.11
2024-03-11T13:33:44.181Z,31.82
2024-03-11T13:36:11.828Z,32.62
2024-03-11T13:38:38.784Z,33.13
2024-03-11T13:41:06.810Z,33.15
2024-03-11T13:43:34.220Z,33.55
2024-03-11T13:46:01.242Z,35.30
2024-03-11T13:48:28.529Z,34.26
2024-03-11T13:50:58.003Z,34.97
2024-03-11T13:53:25.046Z,36.37
2024-03-11T13:55:53.944Z,37.72
2024-03-11T13:58:21.189Z,39.29
2024-03-11T14:00:50.916Z,41.49
2024-03-11T14:03:18.031Z,42.49
2024-03-11T14:05:44.677Z,42.74
2024-03-11T14:08:11.825Z,43.65
2024-03-11T14:10:38.253Z,42.09
2024-03-11T14:13:04.951Z,41.54
2024-03-11T14:15:31.370Z,42.15
2024-03-11T14:17:59.468Z,40.48
2024-03-11T14:20:31.772Z,38.27
2024-03-11T14:22:59.436Z,37.25
2024-03-11T14:25:27.355Z,38.56
2024-03-11T14:27:54.189Z,38.35
2024-03-11T14:30:25.675Z,36.12
2024-03-11T14:32:53.751Z,36.27
2024-03-11T14:35:22.007Z,34.47
2024-03-11T14:37:48.576Z,35.06
2024-03-11T14:40:43.422Z,35.07
2024-03-11T14:43:12.081Z,36.45
2024-03-11T14:45:40.010Z,37.05
2024-03-11T14:48:15.876Z,37.29
2024-03-11T14:50:46.424Z,37.81
2024-03-11T14:53:16.633Z,38.45
2024-03-11T14:55:44.607Z,37.77
2024-03-11T14:58:20.480Z,37.21
2024-03-11T15:00:59.026Z,37.88
2024-03-11T15:03:27.697Z,38.42
2024-03-11T15:05:54.442Z,37.87
2024-03-11T15:08:22.579Z,38.31
2024-03-11T15:10:50.861Z,38.64
2024-03-11T15:13:18.409Z,39.31
2024-03-11T15:15:48.958Z,39.46
2024-03-11T15:18:18.322Z,40.33
2024-03-11T15:20:51.172Z,39.65
2024-03-11T15:23:24.679Z,39.28
2024-03-11T15:25:55.024Z,40.04
2024-03-11T15:28:21.827Z,39.79
2024-03-11T15:30:48.465Z,40.21
2024-03-11T15:33:18.836Z,41.11
2024-03-11T15:35:50.437Z,41.43
2024-03-11T15:38:17.962Z,40.63
2024-03-11T15:40:44.845Z,41.34
2024-03-11T15:43:11.502Z,41.12
2024-03-11T15:45:39.788Z,41.17
2024-03-11T15:48:06.768Z,41.29
2024-03-11T15:50:35.874Z,41.67
2024-03-11T15:53:04.233Z,41.68
2024-03-11T15:55:33.193Z,41.75
2024-03-11T15:58:04.808Z,41.69
2024-03-11T16:00:37.149Z,41.32
2024-03-11T16:03:09.746Z,41.26
2024-03-11T16:05:38.480Z,41.80
2024-03-11T16:08:05.921Z,41.45
2024-03-11T16:10:32.911Z,41.74
2024-03-11T16:12:59.498Z,42.09
2024-03-11T16:15:26.582Z,40.96
2024-03-11T16:17:57.992Z,41.48
2024-03-11T16:20:29.257Z,40.79
2024-03-11T16:22:57.609Z,40.58
2024-03-11T16:25:27.555Z,40.44
2024-03-11T16:27:55.846Z,40.77
2024-03-11T16:30:24.234Z,40.11
2024-03-11T16:32:53.575Z,41.35
2024-03-11T16:35:35.680Z,40.68
2024-03-11T16:38:03.916Z,40.64
2024-03-11T16:40:30.666Z,41.09
2024-03-11T16:43:02.023Z,41.48
2024-03-11T16:45:28.774Z,41.28
2024-03-11T16:47:58.637Z,41.58
2024-03-11T16:50:25.267Z,41.01
2024-03-11T16:52:54.047Z,40.68
2024-03-11T16:55:32.139Z,41.40
2024-03-11T16:57:59.343Z,41.87
2024-03-11T17:00:29.193Z,41.62
2024-03-11T17:02:55.948Z,42.24
2024-03-11T17:05:24.812Z,42.41
2024-03-11T17:07:56.083Z,42.16
2024-03-11T17:10:30.246Z,42.73
2024-03-11T17:13:05.023Z,42.44
2024-03-11T17:15:35.474Z,42.71
2024-03-11T17:18:02.687Z,42.87
2024-03-11T17:20:40.908Z,42.64
2024-03-11T17:23:10.111Z,42.87
2024-03-11T17:25:39.121Z,43.50
2024-03-11T17:28:08.963Z,43.45
2024-03-11T17:30:35.612Z,44.19
2024-03-11T17:33:15.201Z,44.31
2024-03-11T17:35:46.788Z,44.82
2024-03-11T17:38:14.803Z,45.10
2024-03-11T17:40:45.125Z,45.80
2024-03-11T17:43:14.584Z,46.46
2024-03-11T17:45:45.971Z,46.80
2024-03-11T17:48:17.867Z,46.75
2024-03-11T17:50:45.185Z,47.25
2024-03-11T17:53:14.832Z,47.64
2024-03-11T17:55:42.574Z,47.18
2024-03-11T17:58:12.194Z,47.71
2024-03-11T18:00:41.020Z,48.04
2024-03-11T18:03:08.501Z,48.43
2024-03-11T18:05:36.555Z,48.27
2024-03-11T18:08:05.883Z,48.59
2024-03-11T18:10:33.611Z,48.74
2024-03-11T18:13:01.673Z,48.54
2024-03-11T18:15:28.984Z,48.89
2024-03-11T18:17:56.067Z,48.95
2024-03-11T18:20:32.173Z,49.52
2024-03-11T18:23:01.173Z,49.63
2024-03-11T18:25:32.270Z,48.93
2024-03-11T18:28:03.348Z,49.27
2024-03-11T18:30:30.105Z,49.34
2024-03-11T18:32:57.954Z,49.22
2024-03-11T18:35:26.767Z,48.77
2024-03-11T18:37:57.596Z,48.80
2024-03-11T18:40:25.110Z,48.59
2024-03-11T18:42:53.051Z,48.73
2024-03-11T18:45:24.210Z,48.42
2024-03-11T18:47:51.613Z,48.39
2024-03-11T18:50:20.251Z,48.41
2024-03-11T18:52:53.839Z,49.00
2024-03-11T18:55:26.003Z,48.84
2024-03-11T18:57:54.078Z,48.87
2024-03-11T19:00:24.060Z,49.47
2024-03-11T19:02:54.046Z,49.36
2024-03-11T19:05:20.901Z,49.39
2024-03-11T19:07:47.876Z,49.02
2024-03-11T19:10:18.066Z,49.70
2024-03-11T19:12:47.911Z,49.82
2024-03-11T19:15:16.289Z,49.57
2024-03-11T19:17:46.535Z,50.27
2024-03-11T19:20:17.850Z,50.67
2024-03-11T19:22:46.573Z,50.06
2024-03-11T19:25:19.092Z,50.07
2024-03-11T19:27:46.847Z,50.47
2024-03-11T19:30:14.697Z,50.38
2024-03-11T19:32:42.956Z,50.43
2024-03-11T19:35:15.285Z,50.52
2024-03-11T19:38:40.568Z,50.77
2024-03-11T19:41:18.037Z,51.14
2024-03-11T19:44:16.681Z,51.00
2024-03-11T19:46:55.701Z,51.21
2024-03-11T19:49:40.712Z,51.12
2024-03-11T19:52:47.610Z,50.60
2024-03-11T19:55:32.464Z,50.40
2024-03-11T19:59:00.013Z,50.82
2024-03-11T20:01:45.693Z,50.89
2024-03-11T20:04:37.138Z,50.88
2024-03-11T20:07:24.680Z,50.83
2024-03-11T20:10:20.390Z,50.62
2024-03-11T20:13:07.403Z,50.56
2024-03-11T20:15:42.638Z,50.96
2024-03-11T20:18:37.056Z,51.15
2024-03-11T20:21:31.663Z,50.51
2024-03-11T20:24:01.195Z,50.97
2024-03-11T20:26:49.527Z,51.18
2024-03-11T20:29:47.761Z,51.81
2024-03-11T20:32:41.248Z,51.79
2024-03-11T20:35:09.015Z,52.54
2024-03-11T20:37:35.563Z,52.03
2024-03-11T20:40:02.324Z,52.16
2024-03-11T20:42:34.749Z,51.13
2024-03-11T20:45:01.949Z,51.02
2024-03-11T20:47:28.487Z,51.59
2024-03-11T20:49:54.990Z,51.48
2024-03-11T20:52:21.519Z,51.81
2024-03-11T20:54:48.204Z,52.10
2024-03-11T20:57:15.358Z,52.20
2024-03-11T20:59:41.868Z,52.61
2024-03-11T21:02:09.255Z,52.28
2024-03-11T21:04:37.244Z,52.46
2024-03-11T21:07:06.430Z,52.21
2024-03-11T21:09:35.761Z,52.67
2024-03-11T21:12:04.766Z,52.26
2024-03-11T21:14:31.323Z,51.68
2024-03-11T21:16:57.843Z,51.36
2024-03-11T21:19:37.154Z,51.48
2024-03-11T21:22:15.851Z,51.22
2024-03-11T21:24:51.438Z,51.48
2024-03-11T21:27:25.678Z,50.96
2024-03-11T21:29:55.288Z,51.34
2024-03-11T21:32:23.858Z,51.70
2024-03-11T21:34:53.308Z,51.60
2024-03-11T21:37:20.361Z,51.15
2024-03-11T21:39:49.529Z,50.74
2024-03-11T21:42:16.021Z,51.02
2024-03-11T21:44:42.470Z,51.26
2024-03-11T21:47:09.507Z,50.84
2024-03-11T21:49:35.960Z,51.48
2024-03-11T21:52:02.591Z,52.16
2024-03-11T21:54:29.262Z,52.19
2024-03-11T21:56:55.814Z,52.76
2024-03-11T21:59:22.333Z,52.77
2024-03-11T22:01:48.783Z,53.92
2024-03-11T22:04:15.434Z,53.31
2024-03-11T22:06:42.023Z,53.29
2024-03-11T22:09:11.304Z,53.80
2024-03-11T22:11:40.276Z,54.18
2024-03-11T22:14:10.384Z,53.32
2024-03-11T22:16:40.283Z,53.73
2024-03-11T22:19:07.525Z,54.43
2024-03-11T22:21:34.493Z,54.50
2024-03-11T22:24:06.454Z,53.47
2024-03-11T22:26:36.333Z,54.00
2024-03-11T22:29:04.481Z,54.55
2024-03-11T22:31:30.993Z,54.39
2024-03-11T22:33:57.549Z,54.09
2024-03-11T22:36:24.219Z,54.48
2024-03-11T22:38:50.727Z,54.57
2024-03-11T22:41:28.153Z,54.44
2024-03-11T22:43:55.811Z,54.71
2024-03-11T22:46:22.351Z,54.16
2024-03-11T22:48:50.111Z,54.58
2024-03-11T22:51:19.173Z,55.51
2024-03-11T22:53:46.439Z,55.15
2024-03-11T22:56:13.893Z,55.57
2024-03-11T22:58:40.782Z,55.77
2024-03-11T23:01:10.231Z,55.44
2024-03-11T23:03:39.886Z,55.43
2024-03-11T23:06:08.279Z,54.37
2024-03-11T23:08:34.915Z,54.58
2024-03-11T23:11:02.455Z,55.11
2024-03-11T23:13:28.958Z,55.27
2024-03-11T23:15:55.495Z,55.48
2024-03-11T23:18:21.986Z,56.44
2024-03-11T23:20:48.902Z,58.20
2024-03-11T23:23:15.717Z,56.96
2024-03-11T23:25:42.303Z,56.82
2024-03-11T23:28:09.833Z,55.49
2024-03-11T23:30:37.040Z,55.36
2024-03-11T23:33:04.087Z,56.37
2024-03-11T23:35:30.577Z,55.62
2024-03-11T23:37:59.597Z,55.77
2024-03-11T23:40:26.085Z,55.84
2024-03-11T23:42:53.175Z,56.51
2024-03-11T23:45:21.070Z,56.91
2024-03-11T23:47:50.405Z,56.95
2024-03-11T23:50:25.461Z,56.22
2024-03-11T23:52:52.068Z,56.04
2024-03-11T23:55:21.145Z,55.38
2024-03-11T23:57:47.937Z,55.67
